Time;durP1;ratioP1;P1;durP2;ratioP2;P2;SDS_P1;SDS_P2;PMS_P1;PMS_P2;Temp;Humidity;BMP_temperature;BMP_pressure;BME280_temperature;BME280_humidity;BME280_pressure;Samples;Min_cycle;Max_cycle;Signal;HPM_P1;HPM_P2
2021/06/18 00:04:16;;;;;;;12.57;6.17;;;21.80;99.90;;;;;;21036289;28;20032;-78
2021/06/18 00:14:16;;;;;;;9.87;5.70;;;21.70;99.90;;;;;;21015539;28;20047;-78
2021/06/18 00:24:17;;;;;;;6.60;5.10;;;21.70;99.90;;;;;;21012191;28;20037;-78
2021/06/18 00:34:18;;;;;;;6.13;4.57;;;22.10;99.90;;;;;;21014521;28;20064;-77
2021/06/18 00:44:19;;;;;;;6.60;4.40;;;22.20;99.90;;;;;;21004799;28;20055;-78
2021/06/18 00:54:29;;;;;;;7.50;3.33;;;22.10;99.90;;;;;;21016029;28;20147;-78
2021/06/18 01:04:31;;;;;;;8.60;2.92;;;22.40;99.90;;;;;;20990416;28;20546;-78
2021/06/18 01:14:47;;;;;;;6.25;3.28;;;22.60;99.90;;;;;;20987973;28;20040;-74
2021/06/18 01:25:03;;;;;;;5.90;3.00;;;22.40;99.90;;;;;;21022803;28;20040;-77
2021/06/18 01:35:05;;;;;;;5.38;3.40;;;22.30;99.90;;;;;;21067682;28;20032;-79
2021/06/18 01:45:13;;;;;;;4.82;3.42;;;22.20;99.90;;;;;;21073407;28;20138;-78
2021/06/18 01:55:16;;;;;;;6.75;3.42;;;22.10;99.90;;;;;;21086242;28;20081;-78
2021/06/18 02:05:18;;;;;;;4.63;3.33;;;22.00;99.90;;;;;;21101289;28;20040;-77
2021/06/18 02:15:20;;;;;;;7.70;4.00;;;21.90;99.90;;;;;;21100643;28;20040;-79
2021/06/18 02:25:22;;;;;;;6.90;4.20;;;21.70;99.90;;;;;;21022005;28;20097;-79
2021/06/18 02:35:23;;;;;;;5.55;4.20;;;21.50;99.90;;;;;;20994209;28;20037;-78
2021/06/18 02:45:24;;;;;;;5.57;4.07;;;21.20;99.90;;;;;;21033865;28;20036;-78
2021/06/18 02:55:36;;;;;;;7.73;3.50;;;21.00;99.90;;;;;;21015109;28;20032;-78
2021/06/18 03:05:40;;;;;;;8.07;4.57;;;20.70;99.90;;;;;;21087644;28;20036;-78
2021/06/18 03:15:43;;;;;;;8.00;4.38;;;20.60;99.90;;;;;;21008330;28;20040;-78
2021/06/18 03:25:46;;;;;;;5.70;4.22;;;20.50;99.90;;;;;;21006843;28;20037;-78
2021/06/18 03:35:48;;;;;;;6.40;5.00;;;20.50;99.90;;;;;;21008624;28;20086;-78
2021/06/18 03:45:58;;;;;;;8.85;4.60;;;20.20;99.90;;;;;;21011481;28;20037;-77
2021/06/18 03:56:00;;;;;;;12.10;4.30;;;20.10;99.90;;;;;;21009551;28;20040;-78
2021/06/18 04:06:05;;;;;;;11.37;5.07;;;20.00;99.90;;;;;;21010301;28;20513;-78
2021/06/18 04:16:08;;;;;;;6.88;4.63;;;19.80;99.90;;;;;;21007868;28;20115;-78
2021/06/18 04:26:08;;;;;;;6.68;4.40;;;20.00;99.90;;;;;;21005535;28;20040;-78
2021/06/18 04:36:09;;;;;;;5.83;4.43;;;20.10;99.90;;;;;;21004955;28;20580;-78
2021/06/18 04:46:10;;;;;;;8.37;4.53;;;20.60;99.90;;;;;;20987369;28;20044;-78
2021/06/18 04:56:12;;;;;;;7.20;4.80;;;20.40;99.90;;;;;;21003534;28;20044;-77
2021/06/18 05:06:13;;;;;;;6.40;5.10;;;20.40;99.90;;;;;;21011293;28;20175;-78
2021/06/18 05:16:14;;;;;;;8.50;5.77;;;20.50;99.90;;;;;;21047975;28;20040;-79
2021/06/18 05:26:14;;;;;;;10.80;5.43;;;20.50;99.90;;;;;;21065262;28;20032;-78
2021/06/18 05:36:15;;;;;;;8.43;5.10;;;21.00;99.90;;;;;;21067567;28;20056;-78
2021/06/18 05:46:16;;;;;;;14.97;5.27;;;21.20;99.90;;;;;;21067773;28;20108;-78
2021/06/18 05:56:17;;;;;;;7.87;5.30;;;21.60;99.90;;;;;;21089569;28;20075;-80
2021/06/18 06:06:18;;;;;;;8.03;4.53;;;21.90;99.90;;;;;;21104808;28;20036;-79
2021/06/18 06:16:19;;;;;;;8.80;4.80;;;22.30;99.90;;;;;;21090450;28;20040;-79
2021/06/18 06:26:21;;;;;;;5.67;4.50;;;22.50;99.90;;;;;;21089897;28;20048;-80
2021/06/18 06:36:23;;;;;;;7.63;4.85;;;22.90;99.90;;;;;;21104564;28;20036;-80
2021/06/18 06:46:24;;;;;;;6.68;5.18;;;23.10;99.90;;;;;;21124350;28;20043;-80
2021/06/18 06:56:24;;;;;;;9.60;4.77;;;23.50;99.90;;;;;;21157067;22;20130;-78
2021/06/18 07:06:25;;;;;;;10.27;4.70;;;23.90;99.90;;;;;;21184604;28;20126;-78
2021/06/18 07:16:28;;;;;;;6.53;4.85;;;24.90;99.90;;;;;;21153924;28;20112;-78
2021/06/18 07:26:29;;;;;;;5.78;4.40;;;24.90;99.90;;;;;;21188926;28;20186;-78
2021/06/18 07:36:30;;;;;;;6.03;4.30;;;25.20;99.90;;;;;;21179388;28;20055;-78
2021/06/18 07:46:31;;;;;;;5.95;4.72;;;26.10;99.90;;;;;;21174577;28;20461;-78
2021/06/18 07:56:34;;;;;;;8.20;5.15;;;25.40;99.90;;;;;;21152643;28;20051;-77
2021/06/18 08:06:35;;;;;;;8.20;4.70;;;26.10;99.90;;;;;;21155489;28;20039;-78
2021/06/18 08:16:36;;;;;;;6.47;4.38;;;25.70;99.90;;;;;;21149462;28;20050;-77
2021/06/18 08:26:37;;;;;;;5.07;4.40;;;27.00;99.90;;;;;;21164600;28;20058;-77
2021/06/18 08:36:39;;;;;;;6.93;4.07;;;28.00;99.90;;;;;;21130032;28;20043;-77
2021/06/18 08:46:41;;;;;;;12.48;4.55;;;27.80;99.90;;;;;;21164532;28;20040;-76
2021/06/18 08:56:43;;;;;;;7.63;4.47;;;27.80;99.90;;;;;;21163851;28;20050;-76
2021/06/18 09:06:44;;;;;;;9.27;4.60;;;28.30;99.90;;;;;;21171801;28;20074;-77
2021/06/18 09:17:10;;;;;;;6.70;4.85;;;28.60;99.90;;;;;;21163471;28;20377;-77
2021/06/18 09:27:11;;;;;;;12.30;5.25;;;29.00;99.90;;;;;;21158992;28;20035;-76
2021/06/18 09:37:13;;;;;;;6.03;4.22;;;29.80;99.90;;;;;;21140310;28;20043;-76
2021/06/18 09:47:20;;;;;;;6.43;4.43;;;30.30;99.90;;;;;;21158211;28;20046;-77
2021/06/18 09:57:38;;;;;;;7.60;4.45;;;30.30;99.90;;;;;;21157758;28;20118;-76
2021/06/18 10:07:41;;;;;;;5.20;3.90;;;30.80;99.90;;;;;;21164341;28;20040;-77
2021/06/18 10:17:44;;;;;;;8.40;4.10;;;31.10;99.90;;;;;;21173955;28;20040;-76
2021/06/18 10:27:48;;;;;;;10.57;4.78;;;31.60;99.90;;;;;;21154991;28;20039;-77
2021/06/18 10:37:49;;;;;;;8.98;4.30;;;31.90;99.90;;;;;;21130757;28;20047;-77
2021/06/18 10:47:56;;;;;;;8.40;3.78;;;32.10;99.90;;;;;;21176005;28;20058;-77
2021/06/18 10:57:58;;;;;;;10.68;3.90;;;32.50;99.90;;;;;;21178161;28;20556;-77
2021/06/18 11:08:30;;;;;;;6.38;4.00;;;33.10;99.90;;;;;;21174084;28;20509;-77
2021/06/18 11:18:36;;;;;;;6.65;3.75;;;33.60;99.90;;;;;;21139398;28;20112;-76
2021/06/18 11:28:46;;;;;;;6.05;3.72;;;33.90;99.90;;;;;;21157878;28;20035;-76
2021/06/18 11:38:59;;;;;;;7.32;4.50;;;34.00;99.90;;;;;;21158102;28;20484;-77
2021/06/18 11:49:17;;;;;;;11.32;4.68;;;32.40;99.90;;;;;;21171638;28;20047;-77
2021/06/18 11:59:18;;;;;;;6.97;5.00;;;32.30;99.90;;;;;;21157241;28;20054;-76
2021/06/18 12:09:22;;;;;;;7.38;4.57;;;33.10;99.90;;;;;;21156260;28;20039;-77
2021/06/18 12:19:32;;;;;;;8.50;4.32;;;33.30;99.90;;;;;;21130923;28;20115;-77
2021/06/18 12:29:35;;;;;;;;;;;33.10;99.90;;;;;;21099947;28;20044;-76
2021/06/18 12:39:56;;;;;;;5.60;3.90;;;33.90;99.90;;;;;;21092035;28;20373;-77
2021/06/18 12:49:56;;;;;;;12.77;4.45;;;34.60;99.90;;;;;;21137849;28;20035;-77
2021/06/18 13:00:10;;;;;;;9.50;4.35;;;33.10;99.90;;;;;;21104896;22;20470;-76
2021/06/18 13:10:12;;;;;;;9.27;4.63;;;33.90;99.90;;;;;;21108365;28;20111;-78
2021/06/18 13:20:31;;;;;;;4.80;4.30;;;32.20;99.90;;;;;;21139728;28;20592;-75
2021/06/18 13:30:32;;;;;;;7.70;4.50;;;33.50;99.90;;;;;;21054580;28;20058;-76
2021/06/18 13:40:47;;;;;;;7.65;4.65;;;34.50;99.90;;;;;;21103605;28;20024;-78
2021/06/18 13:50:49;;;;;;;7.88;4.93;;;33.50;99.90;;;;;;21108198;28;20544;-77
2021/06/18 14:00:49;;;;;;;6.03;4.50;;;34.30;99.90;;;;;;21077808;28;20048;-78
2021/06/18 14:10:50;;;;;;;7.15;4.57;;;34.50;99.90;;;;;;21072905;28;20520;-77
2021/06/18 14:20:52;;;;;;;5.50;4.53;;;33.90;99.80;;;;;;21055338;28;20118;-77
2021/06/18 14:30:53;;;;;;;10.40;5.28;;;34.10;99.90;;;;;;21054726;28;20387;-76
2021/06/18 14:40:54;;;;;;;6.05;4.63;;;33.70;99.90;;;;;;21055618;28;20067;-79
2021/06/18 14:50:55;;;;;;;10.10;5.35;;;33.70;98.50;;;;;;21123807;28;20067;-77
2021/06/18 15:00:56;;;;;;;8.57;4.43;;;34.20;98.10;;;;;;21177619;28;20040;-78
2021/06/18 15:10:57;;;;;;;10.52;5.50;;;34.60;99.20;;;;;;21173893;28;20080;-77
2021/06/18 15:20:58;;;;;;;6.07;4.45;;;34.10;99.90;;;;;;21182445;28;20036;-79
2021/06/18 15:30:59;;;;;;;10.98;5.43;;;34.20;99.80;;;;;;21171666;28;20036;-78
2021/06/18 15:41:00;;;;;;;8.25;5.40;;;32.30;99.90;;;;;;21170674;28;20114;-77
2021/06/18 15:51:02;;;;;;;10.45;4.85;;;32.00;99.90;;;;;;21168350;28;20074;-77
2021/06/18 16:01:04;;;;;;;10.60;5.60;;;31.60;99.90;;;;;;21166592;28;20397;-77
2021/06/18 16:11:05;;;;;;;11.10;5.68;;;30.80;99.90;;;;;;21052237;28;20044;-77
2021/06/18 16:21:06;;;;;;;7.50;5.82;;;30.00;99.90;;;;;;21089616;28;20418;-77
2021/06/18 16:31:07;;;;;;;14.45;5.32;;;29.80;99.90;;;;;;21101775;28;20114;-78
2021/06/18 16:41:15;;;;;;;10.55;5.72;;;29.70;99.90;;;;;;21111421;28;20087;-79
2021/06/18 16:51:16;;;;;;;7.50;5.13;;;29.30;99.90;;;;;;21127532;28;20045;-77
2021/06/18 17:01:20;;;;;;;7.20;5.15;;;28.60;99.90;;;;;;21159148;28;20499;-78
2021/06/18 17:11:21;;;;;;;11.10;4.88;;;28.20;99.90;;;;;;21130439;28;20039;-78
2021/06/18 17:21:24;;;;;;;9.55;5.18;;;27.90;99.90;;;;;;21146532;28;20061;-78
2021/06/18 17:31:25;;;;;;;8.85;4.97;;;27.40;99.90;;;;;;21163420;28;20109;-77
2021/06/18 17:41:31;;;;;;;6.90;4.50;;;27.30;99.90;;;;;;21113990;28;20048;-75
2021/06/18 17:51:32;;;;;;;8.63;4.55;;;27.20;99.90;;;;;;21069302;28;20036;-79
2021/06/18 18:01:33;;;;;;;6.28;4.35;;;27.00;99.90;;;;;;21075431;28;20036;-78
2021/06/18 18:11:37;;;;;;;;;;;26.80;99.90;;;;;;21078507;28;20039;-77
2021/06/18 18:21:38;;;;;;;8.80;4.60;;;26.80;99.90;;;;;;21058285;28;19961;-76
2021/06/18 18:31:39;;;;;;;;;;;27.10;99.90;;;;;;21083687;28;20552;-74
2021/06/18 18:41:40;;;;;;;11.45;4.32;;;27.50;99.90;;;;;;21069258;28;19914;-73
2021/06/18 18:51:41;;;;;;;7.88;5.13;;;26.80;99.90;;;;;;21086021;28;20063;-77
2021/06/18 19:01:42;;;;;;;;;;;26.30;99.90;;;;;;21162386;22;20527;-77
2021/06/18 19:11:43;;;;;;;5.55;4.43;;;26.20;99.90;;;;;;21180043;28;20308;-80
2021/06/18 19:21:45;;;;;;;7.45;5.38;;;26.00;99.90;;;;;;21180966;28;20055;-77
2021/06/18 19:31:47;;;;;;;16.35;6.35;;;25.80;99.90;;;;;;21177331;28;20089;-78
2021/06/18 19:41:55;;;;;;;7.97;5.43;;;25.60;99.90;;;;;;21181272;28;20042;-77
2021/06/18 19:51:56;;;;;;;15.30;6.13;;;25.10;99.90;;;;;;21146592;28;20115;-81
2021/06/18 20:01:58;;;;;;;15.05;6.75;;;24.40;99.90;;;;;;21105309;28;20038;-82
2021/06/18 20:12:00;;;;;;;12.45;5.90;;;23.90;99.90;;;;;;21097573;28;20035;-82
2021/06/18 20:22:02;;;;;;;8.25;5.97;;;23.50;99.90;;;;;;21127904;28;20043;-80
2021/06/18 20:32:04;;;;;;;10.85;5.68;;;23.30;99.90;;;;;;21138304;28;20194;-81
2021/06/18 20:42:05;;;;;;;;;;;23.10;99.90;;;;;;21058962;28;20036;-81
2021/06/18 20:52:06;;;;;;;12.82;5.47;;;23.10;99.90;;;;;;21111128;28;20352;-82
2021/06/18 21:02:07;;;;;;;12.38;5.38;;;22.90;99.90;;;;;;21109173;28;20535;-80
2021/06/18 21:12:10;;;;;;;13.10;5.73;;;23.00;99.90;;;;;;21144038;28;20039;-86
2021/06/18 21:22:11;;;;;;;9.07;6.03;;;23.20;99.90;;;;;;21120475;28;20409;-82
2021/06/18 21:32:12;;;;;;;14.20;6.73;;;22.70;99.90;;;;;;21100917;28;20070;-81
2021/06/18 21:42:13;;;;;;;16.27;6.33;;;22.20;99.90;;;;;;21073579;28;20440;-82
2021/06/18 21:52:13;;;;;;;16.50;5.93;;;22.20;99.90;;;;;;21081690;28;20047;-81
2021/06/18 22:02:14;;;;;;;13.83;6.07;;;21.90;99.90;;;;;;21080023;28;20050;-83
2021/06/18 22:12:15;;;;;;;15.50;6.63;;;21.80;99.90;;;;;;21073513;28;20070;-83
2021/06/18 22:22:17;;;;;;;13.00;7.00;;;22.10;99.90;;;;;;21102476;28;20552;-83
2021/06/18 22:32:18;;;;;;;15.02;6.97;;;22.30;99.90;;;;;;21061713;28;20571;-83
2021/06/18 22:42:19;;;;;;;12.13;6.47;;;22.40;99.90;;;;;;21097106;28;20031;-81
2021/06/18 22:52:20;;;;;;;9.83;5.97;;;21.70;99.90;;;;;;21077871;28;20133;-86
2021/06/18 23:02:21;;;;;;;;;;;21.50;99.90;;;;;;21095149;28;20048;-88
2021/06/18 23:12:22;;;;;;;13.67;6.77;;;21.30;99.90;;;;;;21061428;28;19912;-87
2021/06/18 23:22:23;;;;;;;13.03;7.17;;;21.30;99.90;;;;;;21058010;28;20781;-84
2021/06/18 23:32:24;;;;;;;17.47;6.83;;;20.70;99.90;;;;;;21056177;28;20055;-84
2021/06/18 23:42:25;;;;;;;18.10;7.13;;;20.60;99.90;;;;;;21069962;28;20593;-84
2021/06/18 23:52:26;;;;;;;14.60;7.50;;;20.50;99.90;;;;;;21139503;27;20418;-84
